createdAt,value
2019-02-08T00:01:05.141Z,98713.16
2019-02-08T00:03:15.930Z,98713.14
2019-02-08T00:05:26.769Z,98713.90
2019-02-08T00:07:37.574Z,98712.42
2019-02-08T00:09:48.493Z,98712.42
2019-02-08T00:11:59.326Z,98716.28
2019-02-08T00:14:10.142Z,98715.05
2019-02-08T00:16:21.054Z,98712.79
2019-02-08T00:18:31.964Z,98710.14
2019-02-08T00:20:43.282Z,98710.51
2019-02-08T00:22:54.192Z,98712.19
2019-02-08T00:25:11.520Z,98717.80
2019-02-08T00:27:22.308Z,98717.88
2019-02-08T00:29:33.257Z,98726.41
2019-02-08T00:31:44.159Z,98721.27
2019-02-08T00:33:54.954Z,98726.55
2019-02-08T00:36:05.770Z,98730.85
2019-02-08T00:38:16.575Z,98731.72
2019-02-08T00:40:27.542Z,98729.59
2019-02-08T00:42:39.735Z,98722.38
2019-02-08T00:44:50.522Z,98719.75
2019-02-08T00:47:01.398Z,98725.78
2019-02-08T00:49:12.222Z,98724.08
2019-02-08T00:51:23.038Z,98723.61
2019-02-08T00:53:33.961Z,98723.61
2019-02-08T00:55:44.883Z,98722.01
2019-02-08T00:57:55.786Z,98730.56
2019-02-08T01:00:26.553Z,98728.83
2019-02-08T01:03:19.010Z,98734.47
2019-02-08T01:05:29.809Z,98736.94
2019-02-08T01:07:40.733Z,98742.00
2019-02-08T01:09:51.584Z,98742.45
2019-02-08T01:12:44.043Z,98742.45
2019-02-08T01:14:54.850Z,98742.00
2019-02-08T01:17:05.661Z,98743.19
2019-02-08T01:19:16.465Z,98747.52
2019-02-08T01:21:27.287Z,98747.06
2019-02-08T01:23:41.358Z,98749.19
2019-02-08T01:25:50.782Z,98753.13
2019-02-08T01:28:01.594Z,98753.11
2019-02-08T01:30:54.041Z,98759.03
2019-02-08T01:33:04.970Z,98752.53
2019-02-08T01:35:57.450Z,98757.13
2019-02-08T01:38:08.266Z,98751.98
2019-02-08T01:40:38.931Z,98750.80
2019-02-08T01:42:49.818Z,98748.20
2019-02-08T01:45:00.651Z,98753.03
2019-02-08T01:47:11.443Z,98744.11
2019-02-08T01:49:35.730Z,98747.96
2019-02-08T01:51:46.506Z,98750.22
2019-02-08T01:53:57.427Z,98747.72
2019-02-08T01:56:08.231Z,98748.69
2019-02-08T01:58:19.045Z,98749.16
2019-02-08T02:01:11.500Z,98745.83
2019-02-08T02:03:22.418Z,98753.08
2019-02-08T02:05:33.233Z,98753.52
2019-02-08T02:07:44.221Z,98752.25
2019-02-08T02:09:55.091Z,98745.88
2019-02-08T02:12:05.855Z,98749.23
2019-02-08T02:14:16.810Z,98750.00
2019-02-08T02:16:27.580Z,98739.27
2019-02-08T02:18:38.392Z,98745.23
2019-02-08T02:20:49.284Z,98742.28
2019-02-08T02:23:00.094Z,98747.85
2019-02-08T02:25:52.560Z,98745.23
2019-02-08T02:28:45.022Z,98744.33
2019-02-08T02:30:55.848Z,98741.95
2019-02-08T02:33:48.307Z,98752.63
2019-02-08T02:35:59.228Z,98744.09
2019-02-08T02:38:10.251Z,98745.05
2019-02-08T02:40:21.272Z,98745.05
2019-02-08T02:42:32.060Z,98736.44
2019-02-08T02:44:42.886Z,98745.88
2019-02-08T02:46:53.830Z,98738.24
2019-02-08T02:49:04.642Z,98746.72
2019-02-08T02:51:15.453Z,98740.81
2019-02-08T02:53:26.247Z,98744.30
2019-02-08T02:55:37.179Z,98743.41
2019-02-08T02:57:48.178Z,98746.03
2019-02-08T02:59:58.980Z,98744.28
2019-02-08T03:02:09.799Z,98745.06
2019-02-08T03:04:20.691Z,98739.01
2019-02-08T03:06:31.508Z,98740.73
2019-02-08T03:08:42.296Z,98735.59
2019-02-08T03:10:53.127Z,98732.27
2019-02-08T03:16:03.237Z,98733.49
2019-02-08T03:18:14.035Z,98732.05
2019-02-08T03:20:24.848Z,98735.91
2019-02-08T03:22:35.785Z,98726.91
2019-02-08T03:24:46.590Z,98730.27
2019-02-08T03:26:57.400Z,98734.05
2019-02-08T03:29:08.192Z,98734.50
2019-02-08T03:31:19.124Z,98738.27
2019-02-08T03:33:29.915Z,98738.27
2019-02-08T03:35:40.826Z,98741.30
2019-02-08T03:37:51.818Z,98733.95
2019-02-08T03:40:44.259Z,98728.30
2019-02-08T03:42:55.181Z,98729.95
2019-02-08T03:45:47.635Z,98728.67
2019-02-08T03:47:58.465Z,98730.72
2019-02-08T03:50:50.915Z,98730.56
2019-02-08T03:53:01.740Z,98728.09
2019-02-08T03:55:32.423Z,98716.41
2019-02-08T03:57:43.329Z,98716.41
2019-02-08T03:59:54.139Z,98729.13
2019-02-08T04:02:05.040Z,98718.79
2019-02-08T04:04:15.984Z,98719.99
2019-02-08T04:06:26.878Z,98724.30
2019-02-08T04:08:37.794Z,98721.25
2019-02-08T04:10:48.683Z,98729.20
2019-02-08T04:12:59.496Z,98728.22
2019-02-08T04:15:51.950Z,98716.98
2019-02-08T04:18:44.418Z,98720.42
2019-02-08T04:20:55.212Z,98719.52
2019-02-08T04:23:06.058Z,98719.13
2019-02-08T04:25:16.936Z,98721.79
2019-02-08T04:27:27.743Z,98717.95
2019-02-08T04:29:38.567Z,98727.24
2019-02-08T04:31:49.356Z,98723.30
2019-02-08T04:34:00.178Z,98719.75
2019-02-08T04:36:10.978Z,98728.36
2019-02-08T04:38:21.769Z,98726.23
2019-02-08T04:40:32.583Z,98724.95
2019-02-08T04:42:43.381Z,98724.50
2019-02-08T04:44:54.202Z,98725.34
2019-02-08T04:47:05.001Z,98724.05
2019-02-08T04:49:15.838Z,98724.89
2019-02-08T04:51:26.647Z,98724.14
2019-02-08T04:53:37.445Z,98729.73
2019-02-08T04:55:48.377Z,98726.77
2019-02-08T04:57:59.158Z,98726.34
2019-02-08T05:00:51.636Z,98727.10
2019-02-08T05:03:44.059Z,98734.34
2019-02-08T05:05:54.886Z,98736.95
2019-02-08T05:08:05.780Z,98738.38
2019-02-08T05:10:58.238Z,98737.92
2019-02-08T05:13:09.040Z,98731.92
2019-02-08T05:16:01.537Z,98739.66
2019-02-08T05:18:12.332Z,98737.23
2019-02-08T05:21:04.801Z,98733.48
2019-02-08T05:23:15.692Z,98739.44
2019-02-08T05:25:26.491Z,98731.63
2019-02-08T05:27:37.322Z,98735.44
2019-02-08T05:29:48.103Z,98733.81
2019-02-08T05:31:59.048Z,98734.73
2019-02-08T05:34:09.928Z,98734.73
2019-02-08T05:36:20.799Z,98726.71
2019-02-08T05:38:31.605Z,98734.12
2019-02-08T05:40:42.532Z,98733.98
2019-02-08T05:42:53.390Z,98731.83
2019-02-08T05:45:45.864Z,98732.75
2019-02-08T05:47:56.681Z,98728.08
2019-02-08T05:50:49.160Z,98733.51
2019-02-08T05:52:59.985Z,98724.98
2019-02-08T05:55:52.451Z,98733.76
2019-02-08T05:58:44.967Z,98728.00
2019-02-08T06:03:28.199Z,98727.01
2019-02-08T06:06:20.736Z,98729.80
2019-02-08T06:08:31.503Z,98725.78
2019-02-08T06:10:42.403Z,98735.86
2019-02-08T06:12:53.433Z,98736.05
2019-02-08T06:15:45.869Z,98747.69
2019-02-08T06:17:56.779Z,98747.39
2019-02-08T06:20:49.241Z,98750.54
2019-02-08T06:23:00.101Z,98748.19
2019-02-08T06:25:52.532Z,98759.06
2019-02-08T06:28:44.992Z,98753.59
2019-02-08T06:30:55.781Z,98750.63
2019-02-08T06:33:06.800Z,98750.37
2019-02-08T06:35:59.247Z,98752.55
2019-02-08T06:38:10.166Z,98754.25
2019-02-08T06:40:41.738Z,98756.48
2019-02-08T06:42:52.853Z,98757.34
2019-02-08T06:45:45.306Z,98750.91
2019-02-08T06:47:56.134Z,98755.59
2019-02-08T06:50:48.589Z,98754.23
2019-02-08T06:52:59.409Z,98758.92
2019-02-08T06:55:11.174Z,98767.41
2019-02-08T07:02:34.156Z,98772.55
2019-02-08T07:05:04.951Z,98769.06
2019-02-08T07:07:35.620Z,98760.02
2019-02-08T07:14:47.091Z,98765.73
2019-02-08T07:19:50.185Z,98766.16
2019-02-08T07:24:43.253Z,98772.45
2019-02-08T07:27:13.946Z,98771.12
2019-02-08T07:32:07.102Z,98780.81
2019-02-08T07:34:59.575Z,98784.67
2019-02-08T07:37:30.460Z,98791.42
2019-02-08T07:40:22.934Z,98786.28
2019-02-08T07:42:53.813Z,98784.08
2019-02-08T07:45:46.291Z,98783.09
2019-02-08T07:48:17.092Z,98778.81
2019-02-08T07:50:47.815Z,98773.91
2019-02-08T07:55:58.741Z,98778.06
2019-02-08T07:58:29.530Z,98774.58
2019-02-08T08:01:00.211Z,98779.06
2019-02-08T08:03:31.128Z,98776.23
2019-02-08T08:06:23.602Z,98771.69
2019-02-08T08:15:51.371Z,98759.03
2019-02-08T08:18:43.842Z,98761.88
2019-02-08T08:21:36.286Z,98764.67
2019-02-08T08:24:28.753Z,98770.58
2019-02-08T08:27:21.218Z,98763.20
2019-02-08T08:30:13.679Z,98752.85
2019-02-08T08:33:06.148Z,98756.84
2019-02-08T08:35:58.606Z,98758.91
2019-02-08T08:38:54.075Z,98763.48
2019-02-08T08:41:46.518Z,98755.53
2019-02-08T08:44:37.085Z,98772.40
2019-02-08T08:47:29.545Z,98774.42
2019-02-08T08:50:22.053Z,98769.31
2019-02-08T08:53:12.617Z,98765.75
2019-02-08T08:56:03.174Z,98760.06
2019-02-08T08:58:56.274Z,98754.97
2019-02-08T09:01:51.717Z,98758.25
2019-02-08T09:04:42.275Z,98749.10
2019-02-08T09:07:32.803Z,98741.45
2019-02-08T09:10:23.654Z,98740.48
2019-02-08T09:13:15.059Z,98738.89
2019-02-08T09:16:05.778Z,98734.75
2019-02-08T09:18:56.326Z,98726.48
2019-02-08T09:21:48.801Z,98724.68
2019-02-08T09:24:41.275Z,98715.22
2019-02-08T09:27:33.715Z,98718.11
2019-02-08T09:30:24.283Z,98710.69
2019-02-08T09:33:16.720Z,98707.27
2019-02-08T09:35:49.314Z,98707.73
2019-02-08T09:38:39.850Z,98710.31
2019-02-08T09:41:35.335Z,98715.13
2019-02-08T09:44:25.869Z,98710.28
2019-02-08T09:47:16.420Z,98717.33
2019-02-08T09:50:06.991Z,98715.22
2019-02-08T09:52:57.561Z,98716.64
2019-02-08T09:55:48.130Z,98716.88
2019-02-08T09:58:40.566Z,98715.59
2019-02-08T10:01:31.202Z,98712.37
2019-02-08T10:04:21.729Z,98704.83
2019-02-08T10:07:14.183Z,98706.20
2019-02-08T10:10:04.718Z,98700.64
2019-02-08T10:12:55.294Z,98708.58
2019-02-08T10:15:45.846Z,98717.87
2019-02-08T10:18:36.394Z,98712.62
2019-02-08T10:21:26.941Z,98712.22
2019-02-08T10:24:17.493Z,98709.25
2019-02-08T10:27:09.935Z,98710.98
2019-02-08T10:30:00.506Z,98708.95
2019-02-08T10:32:52.545Z,98704.50
2019-02-08T10:35:46.178Z,98703.82
2019-02-08T10:38:40.266Z,98715.72
2019-02-08T10:41:30.958Z,98710.16
2019-02-08T10:47:08.067Z,98697.70
2019-02-08T10:49:58.659Z,98694.30
2019-02-08T10:52:49.212Z,98686.57
2019-02-08T10:55:41.680Z,98683.66
2019-02-08T10:58:34.160Z,98671.05
2019-02-08T11:01:24.720Z,98673.09
2019-02-08T11:04:15.288Z,98665.79
2019-02-08T11:07:05.839Z,98667.92
2019-02-08T11:09:56.427Z,98659.20
2019-02-08T11:12:46.936Z,98648.33
2019-02-08T11:15:38.107Z,98637.55
2019-02-08T11:18:30.545Z,98637.44
2019-02-08T11:20:41.362Z,98628.08
2019-02-08T11:22:52.169Z,98630.30
2019-02-08T11:25:44.623Z,98629.11
2019-02-08T11:27:55.449Z,98631.48
2019-02-08T11:30:47.928Z,98620.02
2019-02-08T11:32:58.743Z,98617.81
2019-02-08T11:35:09.798Z,98607.48
2019-02-08T11:37:20.705Z,98599.02
2019-02-08T11:39:31.535Z,98599.33
2019-02-08T11:41:42.557Z,98600.30
2019-02-08T11:43:53.371Z,98605.64
2019-02-08T11:46:04.281Z,98601.74
2019-02-08T11:48:15.219Z,98602.84
2019-02-08T11:50:26.070Z,98605.23
2019-02-08T11:52:37.021Z,98593.13
2019-02-08T11:54:47.819Z,98596.31
2019-02-08T11:56:58.812Z,98586.11
2019-02-08T11:59:09.601Z,98589.02
2019-02-08T12:01:20.414Z,98589.27
2019-02-08T12:03:31.215Z,98582.57
2019-02-08T12:05:42.113Z,98582.14
2019-02-08T12:07:53.032Z,98579.95
2019-02-08T12:10:45.477Z,98575.23
2019-02-08T12:12:56.306Z,98569.89
2019-02-08T12:15:48.765Z,98564.48
2019-02-08T12:17:59.596Z,98560.80
2019-02-08T12:20:10.529Z,98558.22
2019-02-08T12:22:21.341Z,98554.11
2019-02-08T12:24:32.139Z,98553.73
2019-02-08T12:26:42.954Z,98549.06
2019-02-08T12:28:53.998Z,98543.30
2019-02-08T12:31:04.888Z,98536.91
2019-02-08T12:33:15.715Z,98532.45
2019-02-08T12:35:26.519Z,98536.75
2019-02-08T12:37:37.357Z,98535.41
2019-02-08T12:39:48.203Z,98534.59
2019-02-08T12:41:59.027Z,98526.17
2019-02-08T12:44:09.963Z,98518.25
2019-02-08T12:46:20.764Z,98514.35
2019-02-08T12:48:31.590Z,98507.66
2019-02-08T12:50:42.514Z,98504.06
2019-02-08T12:52:53.325Z,98503.03
2019-02-08T12:55:45.853Z,98496.14
2019-02-08T12:58:16.649Z,98494.64
2019-02-08T13:00:27.562Z,98491.22
2019-02-08T13:02:38.371Z,98488.41
2019-02-08T13:04:49.212Z,98492.86
2019-02-08T13:07:00.032Z,98474.77
2019-02-08T13:09:52.519Z,98471.03
2019-02-08T13:12:03.353Z,98473.62
2019-02-08T13:14:14.185Z,98465.84
2019-02-08T13:16:44.885Z,98455.84
2019-02-08T13:18:55.679Z,98455.84
2019-02-08T13:21:06.515Z,98462.59
2019-02-08T13:23:17.334Z,98453.84
2019-02-08T13:25:28.263Z,98456.34
2019-02-08T13:27:39.243Z,98451.55
2019-02-08T13:29:50.052Z,98454.05
2019-02-08T13:32:00.891Z,98450.73
2019-02-08T13:34:11.793Z,98440.50
2019-02-08T13:36:22.605Z,98434.31
2019-02-08T13:38:33.411Z,98435.52
2019-02-08T13:40:44.458Z,98438.51
2019-02-08T13:42:55.284Z,98427.36
2019-02-08T13:45:47.753Z,98426.83
2019-02-08T13:47:58.571Z,98429.63
2019-02-08T13:52:55.593Z,98428.33
2019-02-08T13:55:48.748Z,98419.25
2019-02-08T13:57:59.609Z,98416.48
2019-02-08T14:02:49.302Z,98410.89
2019-02-08T14:05:00.196Z,98407.97
2019-02-08T14:07:11.041Z,98406.97
2019-02-08T14:09:21.836Z,98401.52
2019-02-08T14:11:32.716Z,98392.97
2019-02-08T14:13:43.494Z,98386.84
2019-02-08T14:15:54.310Z,98382.02
2019-02-08T14:18:05.311Z,98386.17
2019-02-08T14:20:57.780Z,98385.14
2019-02-08T14:23:08.576Z,98382.34
2019-02-08T14:26:01.061Z,98377.28
2019-02-08T14:28:11.908Z,98375.48
2019-02-08T14:30:42.678Z,98372.45
2019-02-08T14:32:53.525Z,98371.73
2019-02-08T14:35:45.962Z,98364.71
2019-02-08T14:38:38.422Z,98361.15
2019-02-08T14:40:49.234Z,98361.41
2019-02-08T14:43:00.348Z,98359.29
2019-02-08T14:45:52.792Z,98358.72
2019-02-08T14:48:03.734Z,98353.70
2019-02-08T14:50:34.457Z,98347.67
2019-02-08T14:53:27.775Z,98337.83
2019-02-08T14:55:39.627Z,98334.03
2019-02-08T14:58:32.099Z,98339.06
2019-02-08T15:00:42.929Z,98333.94
2019-02-08T15:02:53.775Z,98327.84
2019-02-08T15:05:46.274Z,98320.27
2019-02-08T15:07:57.760Z,98321.30
2019-02-08T15:10:51.476Z,98324.98
2019-02-08T15:13:02.537Z,98326.34
2019-02-08T15:15:13.456Z,98322.45
2019-02-08T15:17:24.266Z,98321.16
2019-02-08T15:19:35.192Z,98313.31
2019-02-08T15:21:46.042Z,98311.41
2019-02-08T15:23:56.882Z,98307.62
2019-02-08T15:26:07.788Z,98311.11
2019-02-08T15:28:18.596Z,98298.55
2019-02-08T15:31:11.096Z,98291.45
2019-02-08T15:33:21.906Z,98288.80
2019-02-08T15:35:33.035Z,98290.73
2019-02-08T15:38:25.488Z,98286.63
2019-02-08T15:40:56.331Z,98290.59
2019-02-08T15:43:48.804Z,98293.51
2019-02-08T15:45:59.810Z,98293.51
2019-02-08T15:48:10.714Z,98283.86
2019-02-08T15:50:21.776Z,98283.09
2019-02-08T15:52:32.589Z,98278.21
2019-02-08T15:54:43.506Z,98271.27
2019-02-08T15:56:54.458Z,98269.30
2019-02-08T15:59:05.285Z,98267.27
2019-02-08T16:01:16.215Z,98262.41
2019-02-08T16:03:27.005Z,98259.98
2019-02-08T16:05:37.917Z,98254.22
2019-02-08T16:07:48.767Z,98252.05
2019-02-08T16:09:59.635Z,98251.38
2019-02-08T16:12:10.459Z,98257.09
2019-02-08T16:14:21.350Z,98260.56
2019-02-08T16:16:32.269Z,98257.98
2019-02-08T16:18:43.099Z,98260.68
2019-02-08T16:20:53.951Z,98251.71
2019-02-08T16:23:04.859Z,98250.67
2019-02-08T16:25:57.349Z,98245.27
2019-02-08T16:28:08.274Z,98242.25
2019-02-08T16:31:00.770Z,98243.48
2019-02-08T16:33:11.695Z,98245.00
2019-02-08T16:36:04.167Z,98244.19
2019-02-08T16:38:15.070Z,98253.09
2019-02-08T16:41:07.554Z,98248.30
2019-02-08T16:43:18.399Z,98244.29
2019-02-08T16:45:49.086Z,98245.94
2019-02-08T16:48:41.563Z,98244.42
2019-02-08T16:50:52.516Z,98243.14
2019-02-08T16:53:44.986Z,98235.66
2019-02-08T16:55:55.787Z,98234.20
2019-02-08T16:58:48.279Z,98232.55
2019-02-08T17:00:59.208Z,98233.75
2019-02-08T17:03:51.679Z,98228.44
2019-02-08T17:06:24.266Z,98230.98
2019-02-08T17:08:35.101Z,98225.12
2019-02-08T17:10:45.915Z,98219.67
2019-02-08T17:13:38.401Z,98225.27
2019-02-08T17:15:49.213Z,98219.73
2019-02-08T17:18:00.065Z,98220.38
2019-02-08T17:20:31.935Z,98219.23
2019-02-08T17:22:42.796Z,98223.05
2019-02-08T17:24:53.596Z,98222.72
2019-02-08T17:27:04.496Z,98221.35
2019-02-08T17:29:15.355Z,98215.67
2019-02-08T17:31:26.178Z,98221.41
2019-02-08T17:33:37.000Z,98224.59
2019-02-08T17:35:47.831Z,98219.30
2019-02-08T17:37:58.713Z,98222.57
2019-02-08T17:40:51.181Z,98219.94
2019-02-08T17:43:43.677Z,98212.88
2019-02-08T17:45:54.500Z,98210.22
2019-02-08T17:48:46.973Z,98206.85
2019-02-08T17:50:57.819Z,98209.84
2019-02-08T17:53:08.645Z,98211.88
2019-02-08T17:56:01.138Z,98214.09
2019-02-08T17:58:11.949Z,98212.88
2019-02-08T18:01:04.441Z,98212.34
2019-02-08T18:03:15.367Z,98213.72
2019-02-08T18:05:26.303Z,98208.92
2019-02-08T18:07:37.433Z,98207.25
2019-02-08T18:09:49.848Z,98202.00
2019-02-08T18:12:00.687Z,98207.39
2019-02-08T18:14:11.563Z,98204.12
2019-02-08T18:16:22.398Z,98202.00
2019-02-08T18:18:33.229Z,98199.56
2019-02-08T18:21:03.932Z,98201.17
2019-02-08T18:23:14.763Z,98193.19
2019-02-08T18:25:25.685Z,98189.83
2019-02-08T18:27:36.525Z,98199.60
2019-02-08T18:29:47.459Z,98195.13
2019-02-08T18:31:58.328Z,98190.42
2019-02-08T18:34:09.136Z,98196.64
2019-02-08T18:36:20.003Z,98188.98
2019-02-08T18:38:30.794Z,98180.30
2019-02-08T18:40:41.622Z,98182.80
2019-02-08T18:42:52.632Z,98181.41
2019-02-08T18:45:45.121Z,98186.09
2019-02-08T18:47:56.057Z,98189.64
2019-02-08T18:50:48.513Z,98173.22
2019-02-08T18:52:59.361Z,98168.33
2019-02-08T18:55:10.270Z,98165.77
2019-02-08T18:57:21.151Z,98163.16
2019-02-08T18:59:31.975Z,98172.20
2019-02-08T19:01:42.922Z,98170.94
2019-02-08T19:03:53.746Z,98162.03
2019-02-08T19:06:04.552Z,98164.48
2019-02-08T19:08:15.500Z,98165.91
2019-02-08T19:10:26.331Z,98163.27
2019-02-08T19:12:37.246Z,98156.58
2019-02-08T19:14:48.055Z,98153.35
2019-02-08T19:16:58.896Z,98161.22
2019-02-08T19:19:09.758Z,98165.50
2019-02-08T19:21:20.600Z,98164.72
2019-02-08T19:23:31.487Z,98171.25
2019-02-08T19:26:23.955Z,98157.89
2019-02-08T19:28:34.778Z,98154.98
2019-02-08T19:30:45.583Z,98155.70
2019-02-08T19:32:56.440Z,98148.88
2019-02-08T19:35:48.893Z,98150.09
2019-02-08T19:37:59.724Z,98141.98
2019-02-08T19:40:52.214Z,98132.03
2019-02-08T19:43:44.688Z,98125.66
2019-02-08T19:45:55.514Z,98135.55
2019-02-08T19:48:47.998Z,98127.43
2019-02-08T19:50:59.035Z,98118.08
2019-02-08T19:53:10.036Z,98105.56
2019-02-08T19:55:21.092Z,98110.67
2019-02-08T19:57:31.913Z,98100.22
2019-02-08T19:59:42.754Z,98101.51
2019-02-08T20:01:53.590Z,98100.48
2019-02-08T20:04:04.449Z,98100.98
2019-02-08T20:06:15.382Z,98092.63
2019-02-08T20:08:26.243Z,98097.66
2019-02-08T20:11:18.719Z,98095.83
2019-02-08T20:13:29.544Z,98090.67
2019-02-08T20:15:40.358Z,98088.96
2019-02-08T20:17:51.270Z,98089.92
2019-02-08T20:20:43.762Z,98094.84
2019-02-08T20:22:54.668Z,98100.61
2019-02-08T20:25:47.149Z,98095.78
2019-02-08T20:27:58.059Z,98091.00
2019-02-08T20:30:50.821Z,98083.39
2019-02-08T20:33:01.729Z,98083.85
2019-02-08T20:35:54.196Z,98079.61
2019-02-08T20:38:05.356Z,98077.48
2019-02-08T20:40:57.813Z,98075.88
2019-02-08T20:43:08.658Z,98072.33
2019-02-08T20:46:01.144Z,98070.84
2019-02-08T20:48:53.583Z,98071.39
2019-02-08T20:51:04.547Z,98067.52
2019-02-08T20:53:15.589Z,98074.34
2019-02-08T20:56:08.100Z,98064.08
2019-02-08T20:58:19.004Z,98057.13
2019-02-08T21:01:11.481Z,98059.62
2019-02-08T21:04:03.928Z,98054.41
2019-02-08T21:06:14.785Z,98058.79
2019-02-08T21:08:25.713Z,98048.02
2019-02-08T21:10:36.625Z,98047.59
2019-02-08T21:12:47.597Z,98041.28
2019-02-08T21:14:58.411Z,98045.60
2019-02-08T21:17:09.271Z,98043.53
2019-02-08T21:19:20.100Z,98040.58
2019-02-08T21:21:30.925Z,98028.44
2019-02-08T21:23:41.748Z,98028.44
2019-02-08T21:25:52.714Z,98025.86
2019-02-08T21:28:46.146Z,98019.36
2019-02-08T21:30:57.048Z,98020.11
2019-02-08T21:33:49.541Z,98019.60
2019-02-08T21:36:00.368Z,98013.85
2019-02-08T21:38:11.331Z,98000.12
2019-02-08T21:40:42.008Z,97999.02
2019-02-08T21:43:34.590Z,97992.58
2019-02-08T21:45:45.443Z,97988.87
2019-02-08T21:47:56.386Z,97997.58
2019-02-08T21:50:48.861Z,97995.05
2019-02-08T21:52:59.921Z,97988.37
2019-02-08T21:55:52.371Z,97984.72
2019-02-08T21:58:44.874Z,97976.29
2019-02-08T22:00:55.781Z,97979.40
2019-02-08T22:03:48.267Z,97979.94
2019-02-08T22:06:40.753Z,97970.94
2019-02-08T22:08:51.573Z,97969.41
2019-02-08T22:11:22.284Z,97968.13
2019-02-08T22:13:33.127Z,97968.13
2019-02-08T22:16:25.570Z,97970.05
2019-02-08T22:18:36.442Z,97971.88
2019-02-08T22:20:47.363Z,97970.81
2019-02-08T22:22:58.278Z,97968.31
2019-02-08T22:25:50.759Z,97965.91
2019-02-08T22:28:01.601Z,97951.00
2019-02-08T22:30:32.293Z,97957.06
2019-02-08T22:33:24.759Z,97956.86
2019-02-08T22:35:35.777Z,97947.98
2019-02-08T22:37:46.677Z,97942.54
2019-02-08T22:39:57.517Z,97947.48
2019-02-08T22:42:08.338Z,97948.59
2019-02-08T22:46:36.670Z,97951.66
2019-02-08T22:48:47.470Z,97946.27
2019-02-08T22:50:58.348Z,97949.29
2019-02-08T22:53:09.367Z,97953.20
2019-02-08T22:56:01.834Z,97953.27
2019-02-08T22:58:12.647Z,97945.93
2019-02-08T23:01:03.211Z,97962.73
2019-02-08T23:03:55.666Z,97968.83
2019-02-08T23:06:06.605Z,97965.05
2019-02-08T23:08:17.418Z,97959.23
2019-02-08T23:10:28.350Z,97960.09
2019-02-08T23:12:39.167Z,97957.20
2019-02-08T23:14:49.969Z,97963.47
2019-02-08T23:17:00.889Z,97956.78
2019-02-08T23:19:11.814Z,97966.79
2019-02-08T23:21:22.722Z,97973.14
2019-02-08T23:23:33.533Z,97973.21
2019-02-08T23:25:44.346Z,97972.60
2019-02-08T23:27:55.207Z,97980.33
2019-02-08T23:30:25.842Z,97973.41
2019-02-08T23:32:36.775Z,97970.33
2019-02-08T23:34:47.590Z,97976.34
2019-02-08T23:36:58.602Z,97974.83
2019-02-08T23:39:51.068Z,97969.25
2019-02-08T23:42:01.901Z,97966.95
2019-02-08T23:44:12.794Z,97967.98
2019-02-08T23:46:23.607Z,97957.27
2019-02-08T23:48:34.513Z,97957.63
2019-02-08T23:50:45.323Z,97958.57
2019-02-08T23:52:56.191Z,97953.84
2019-02-08T23:55:48.664Z,97940.39
2019-02-08T23:57:59.492Z,97940.01
